sensor_id;sensor_type;location;lat;lon;timestamp;temperature;humidity
68943;DHT22;60852;52.190;4.422;2023-08-08T00:01:18;18.91;61.05
68943;DHT22;60852;52.190;4.422;2023-08-08T00:03:43;18.92;61.09
68943;DHT22;60852;52.190;4.422;2023-08-08T00:06:09;18.96;61.14
68943;DHT22;60852;52.190;4.422;2023-08-08T00:08:34;18.95;61.74
68943;DHT22;60852;52.190;4.422;2023-08-08T00:11:00;18.91;61.92
68943;DHT22;60852;52.190;4.422;2023-08-08T00:13:25;18.88;61.32
68943;DHT22;60852;52.190;4.422;2023-08-08T00:15:50;18.89;61.23
68943;DHT22;60852;52.190;4.422;2023-08-08T00:18:16;18.91;61.69
68943;DHT22;60852;52.190;4.422;2023-08-08T00:20:41;18.94;61.86
68943;DHT22;60852;52.190;4.422;2023-08-08T00:23:07;18.92;62.16
68943;DHT22;60852;52.190;4.422;2023-08-08T00:25:32;18.94;62.80
68943;DHT22;60852;52.190;4.422;2023-08-08T00:27:58;18.95;62.71
68943;DHT22;60852;52.190;4.422;2023-08-08T00:30:23;18.95;63.13
68943;DHT22;60852;52.190;4.422;2023-08-08T00:32:49;18.92;63.43
68943;DHT22;60852;52.190;4.422;2023-08-08T00:35:14;18.89;62.72
68943;DHT22;60852;52.190;4.422;2023-08-08T00:37:40;18.87;62.25
68943;DHT22;60852;52.190;4.422;2023-08-08T00:40:06;18.82;61.19
68943;DHT22;60852;52.190;4.422;2023-08-08T00:42:32;18.73;60.82
68943;DHT22;60852;52.190;4.422;2023-08-08T00:44:58;18.71;60.74
68943;DHT22;60852;52.190;4.422;2023-08-08T00:47:31;18.75;61.20
68943;DHT22;60852;52.190;4.422;2023-08-08T00:49:59;18.73;61.16
68943;DHT22;60852;52.190;4.422;2023-08-08T00:52:25;18.71;61.68
68943;DHT22;60852;52.190;4.422;2023-08-08T00:54:52;18.71;61.26
68943;DHT22;60852;52.190;4.422;2023-08-08T00:57:18;18.69;61.67
68943;DHT22;60852;52.190;4.422;2023-08-08T00:59:44;18.68;61.77
68943;DHT22;60852;52.190;4.422;2023-08-08T01:02:11;18.65;62.08
68943;DHT22;60852;52.190;4.422;2023-08-08T01:04:37;18.65;62.28
68943;DHT22;60852;52.190;4.422;2023-08-08T01:07:17;18.65;62.23
68943;DHT22;60852;52.190;4.422;2023-08-08T01:10:14;18.69;62.27
68943;DHT22;60852;52.190;4.422;2023-08-08T01:12:46;18.71;62.37
68943;DHT22;60852;52.190;4.422;2023-08-08T01:15:13;18.72;62.71
68943;DHT22;60852;52.190;4.422;2023-08-08T01:17:42;18.73;63.10
68943;DHT22;60852;52.190;4.422;2023-08-08T01:20:09;18.69;62.88
68943;DHT22;60852;52.190;4.422;2023-08-08T01:22:39;18.65;62.46
68943;DHT22;60852;52.190;4.422;2023-08-08T01:25:08;18.69;62.89
68943;DHT22;60852;52.190;4.422;2023-08-08T01:27:34;18.65;63.11
68943;DHT22;60852;52.190;4.422;2023-08-08T01:30:00;18.71;63.09
68943;DHT22;60852;52.190;4.422;2023-08-08T01:32:25;18.64;62.14
68943;DHT22;60852;52.190;4.422;2023-08-08T01:34:51;18.61;62.07
68943;DHT22;60852;52.190;4.422;2023-08-08T01:40:16;18.62;61.19
68943;DHT22;60852;52.190;4.422;2023-08-08T01:42:45;18.62;60.73
68943;DHT22;60852;52.190;4.422;2023-08-08T01:45:11;18.58;60.43
68943;DHT22;60852;52.190;4.422;2023-08-08T01:47:37;18.55;60.41
68943;DHT22;60852;52.190;4.422;2023-08-08T01:50:03;18.52;60.28
68943;DHT22;60852;52.190;4.422;2023-08-08T01:52:29;18.51;60.59
68943;DHT22;60852;52.190;4.422;2023-08-08T01:54:54;18.57;61.89
68943;DHT22;60852;52.190;4.422;2023-08-08T01:57:20;18.55;61.45
68943;DHT22;60852;52.190;4.422;2023-08-08T01:59:45;18.54;61.63
68943;DHT22;60852;52.190;4.422;2023-08-08T02:02:11;18.55;62.34
68943;DHT22;60852;52.190;4.422;2023-08-08T02:04:36;18.61;63.15
68943;DHT22;60852;52.190;4.422;2023-08-08T02:07:02;18.62;63.69
68943;DHT22;60852;52.190;4.422;2023-08-08T02:09:27;18.50;62.02
68943;DHT22;60852;52.190;4.422;2023-08-08T02:11:53;18.40;61.12
68943;DHT22;60852;52.190;4.422;2023-08-08T02:14:19;18.34;60.71
68943;DHT22;60852;52.190;4.422;2023-08-08T02:16:44;18.30;61.13
68943;DHT22;60852;52.190;4.422;2023-08-08T02:19:10;18.27;61.80
68943;DHT22;60852;52.190;4.422;2023-08-08T02:21:35;18.27;62.49
68943;DHT22;60852;52.190;4.422;2023-08-08T02:24:01;18.21;62.57
68943;DHT22;60852;52.190;4.422;2023-08-08T02:26:26;18.11;62.36
68943;DHT22;60852;52.190;4.422;2023-08-08T02:28:52;18.16;62.68
68943;DHT22;60852;52.190;4.422;2023-08-08T02:31:17;18.09;62.34
68943;DHT22;60852;52.190;4.422;2023-08-08T02:33:50;18.04;62.68
68943;DHT22;60852;52.190;4.422;2023-08-08T02:36:16;18.13;63.12
68943;DHT22;60852;52.190;4.422;2023-08-08T02:38:42;18.13;63.43
68943;DHT22;60852;52.190;4.422;2023-08-08T02:41:08;18.14;64.31
68943;DHT22;60852;52.190;4.422;2023-08-08T02:43:33;18.04;64.27
68943;DHT22;60852;52.190;4.422;2023-08-08T02:45:59;18.07;64.62
68943;DHT22;60852;52.190;4.422;2023-08-08T02:48:24;18.09;65.35
68943;DHT22;60852;52.190;4.422;2023-08-08T02:50:50;18.07;65.51
68943;DHT22;60852;52.190;4.422;2023-08-08T02:53:16;18.06;64.92
68943;DHT22;60852;52.190;4.422;2023-08-08T02:55:41;18.04;65.14
68943;DHT22;60852;52.190;4.422;2023-08-08T02:58:07;17.97;65.24
68943;DHT22;60852;52.190;4.422;2023-08-08T03:00:32;17.90;64.95
68943;DHT22;60852;52.190;4.422;2023-08-08T03:02:58;17.86;65.19
68943;DHT22;60852;52.190;4.422;2023-08-08T03:05:23;17.86;65.30
68943;DHT22;60852;52.190;4.422;2023-08-08T03:07:49;17.86;65.26
68943;DHT22;60852;52.190;4.422;2023-08-08T03:10:14;17.86;64.80
68943;DHT22;60852;52.190;4.422;2023-08-08T03:12:40;17.83;65.00
68943;DHT22;60852;52.190;4.422;2023-08-08T03:15:07;17.85;65.30
68943;DHT22;60852;52.190;4.422;2023-08-08T03:17:33;17.85;65.74
68943;DHT22;60852;52.190;4.422;2023-08-08T03:19:58;17.82;65.56
68943;DHT22;60852;52.190;4.422;2023-08-08T03:22:23;17.71;65.61
68943;DHT22;60852;52.190;4.422;2023-08-08T03:24:49;17.71;66.12
68943;DHT22;60852;52.190;4.422;2023-08-08T03:27:14;17.73;66.46
68943;DHT22;60852;52.190;4.422;2023-08-08T03:29:40;17.73;66.67
68943;DHT22;60852;52.190;4.422;2023-08-08T03:32:06;17.79;66.76
68943;DHT22;60852;52.190;4.422;2023-08-08T03:34:31;17.71;65.91
68943;DHT22;60852;52.190;4.422;2023-08-08T03:36:57;17.72;65.67
68943;DHT22;60852;52.190;4.422;2023-08-08T03:39:22;17.68;65.81
68943;DHT22;60852;52.190;4.422;2023-08-08T03:41:48;17.68;65.35
68943;DHT22;60852;52.190;4.422;2023-08-08T03:44:13;17.62;63.69
68943;DHT22;60852;52.190;4.422;2023-08-08T03:46:38;17.58;63.78
68943;DHT22;60852;52.190;4.422;2023-08-08T03:49:04;17.59;64.53
68943;DHT22;60852;52.190;4.422;2023-08-08T03:51:29;17.63;64.38
68943;DHT22;60852;52.190;4.422;2023-08-08T03:53:55;17.66;65.02
68943;DHT22;60852;52.190;4.422;2023-08-08T03:56:21;17.68;65.21
68943;DHT22;60852;52.190;4.422;2023-08-08T03:58:46;17.71;65.49
68943;DHT22;60852;52.190;4.422;2023-08-08T04:01:12;17.71;65.97
68943;DHT22;60852;52.190;4.422;2023-08-08T04:03:37;17.69;66.16
68943;DHT22;60852;52.190;4.422;2023-08-08T04:06:03;17.71;66.20
68943;DHT22;60852;52.190;4.422;2023-08-08T04:08:28;17.66;65.87
68943;DHT22;60852;52.190;4.422;2023-08-08T04:10:54;17.66;66.06
68943;DHT22;60852;52.190;4.422;2023-08-08T04:13:19;17.62;66.31
68943;DHT22;60852;52.190;4.422;2023-08-08T04:15:45;17.65;65.92
68943;DHT22;60852;52.190;4.422;2023-08-08T04:18:10;17.69;65.80
68943;DHT22;60852;52.190;4.422;2023-08-08T04:20:36;17.62;64.33
68943;DHT22;60852;52.190;4.422;2023-08-08T04:23:02;17.53;64.28
68943;DHT22;60852;52.190;4.422;2023-08-08T04:25:28;17.55;64.60
68943;DHT22;60852;52.190;4.422;2023-08-08T04:27:54;17.56;64.36
68943;DHT22;60852;52.190;4.422;2023-08-08T04:30:19;17.55;64.11
68943;DHT22;60852;52.190;4.422;2023-08-08T04:32:45;17.55;62.45
68943;DHT22;60852;52.190;4.422;2023-08-08T04:35:11;17.48;62.42
68943;DHT22;60852;52.190;4.422;2023-08-08T04:37:36;17.43;62.43
68943;DHT22;60852;52.190;4.422;2023-08-08T04:40:02;17.42;62.63
68943;DHT22;60852;52.190;4.422;2023-08-08T04:42:27;17.45;63.11
68943;DHT22;60852;52.190;4.422;2023-08-08T04:44:53;17.46;63.53
68943;DHT22;60852;52.190;4.422;2023-08-08T04:47:18;17.48;63.78
68943;DHT22;60852;52.190;4.422;2023-08-08T04:49:44;17.53;63.96
68943;DHT22;60852;52.190;4.422;2023-08-08T04:52:09;17.53;63.89
68943;DHT22;60852;52.190;4.422;2023-08-08T04:54:35;17.39;63.11
68943;DHT22;60852;52.190;4.422;2023-08-08T04:57:00;17.45;62.76
68943;DHT22;60852;52.190;4.422;2023-08-08T04:59:26;17.38;61.19
68943;DHT22;60852;52.190;4.422;2023-08-08T05:01:51;17.39;62.36
68943;DHT22;60852;52.190;4.422;2023-08-08T05:04:17;17.38;62.79
68943;DHT22;60852;52.190;4.422;2023-08-08T05:06:43;17.43;62.68
68943;DHT22;60852;52.190;4.422;2023-08-08T05:09:08;18.10;61.14
68943;DHT22;60852;52.190;4.422;2023-08-08T05:11:35;19.15;58.55
68943;DHT22;60852;52.190;4.422;2023-08-08T05:14:01;19.73;57.21
68943;DHT22;60852;52.190;4.422;2023-08-08T05:16:27;20.14;55.76
68943;DHT22;60852;52.190;4.422;2023-08-08T05:18:53;20.24;55.76
68943;DHT22;60852;52.190;4.422;2023-08-08T05:21:21;20.17;56.07
68943;DHT22;60852;52.190;4.422;2023-08-08T05:23:46;20.22;56.78
68943;DHT22;60852;52.190;4.422;2023-08-08T05:26:13;20.56;55.50
68943;DHT22;60852;52.190;4.422;2023-08-08T05:28:39;20.05;57.47
68943;DHT22;60852;52.190;4.422;2023-08-08T05:31:05;19.37;60.19
68943;DHT22;60852;52.190;4.422;2023-08-08T05:33:30;18.96;60.62
68943;DHT22;60852;52.190;4.422;2023-08-08T05:35:56;18.98;61.38
68943;DHT22;60852;52.190;4.422;2023-08-08T05:38:21;18.98;61.96
68943;DHT22;60852;52.190;4.422;2023-08-08T05:40:47;18.98;62.13
68943;DHT22;60852;52.190;4.422;2023-08-08T05:43:12;19.02;61.63
68943;DHT22;60852;52.190;4.422;2023-08-08T05:45:42;18.71;60.62
68943;DHT22;60852;52.190;4.422;2023-08-08T05:48:08;18.82;59.73
68943;DHT22;60852;52.190;4.422;2023-08-08T05:50:37;18.84;59.54
68943;DHT22;60852;52.190;4.422;2023-08-08T05:53:03;18.82;59.72
68943;DHT22;60852;52.190;4.422;2023-08-08T05:55:28;18.68;60.00
68943;DHT22;60852;52.190;4.422;2023-08-08T05:57:54;18.57;60.04
68943;DHT22;60852;52.190;4.422;2023-08-08T06:00:19;18.82;60.24
68943;DHT22;60852;52.190;4.422;2023-08-08T06:02:45;19.70;58.46
68943;DHT22;60852;52.190;4.422;2023-08-08T06:05:11;20.67;56.15
68943;DHT22;60852;52.190;4.422;2023-08-08T06:07:37;20.87;54.72
68943;DHT22;60852;52.190;4.422;2023-08-08T06:10:02;20.53;55.59
68943;DHT22;60852;52.190;4.422;2023-08-08T06:12:28;20.12;56.80
68943;DHT22;60852;52.190;4.422;2023-08-08T06:14:53;19.95;57.76
68943;DHT22;60852;52.190;4.422;2023-08-08T06:17:19;19.68;59.51
68943;DHT22;60852;52.190;4.422;2023-08-08T06:19:45;19.61;60.45
68943;DHT22;60852;52.190;4.422;2023-08-08T06:22:11;19.50;60.19
68943;DHT22;60852;52.190;4.422;2023-08-08T06:24:37;19.40;60.59
68943;DHT22;60852;52.190;4.422;2023-08-08T06:27:02;19.26;60.83
68943;DHT22;60852;52.190;4.422;2023-08-08T06:29:28;19.18;61.03
68943;DHT22;60852;52.190;4.422;2023-08-08T06:31:54;19.00;61.32
68943;DHT22;60852;52.190;4.422;2023-08-08T06:34:19;18.88;61.85
68943;DHT22;60852;52.190;4.422;2023-08-08T06:36:44;18.82;62.03
68943;DHT22;60852;52.190;4.422;2023-08-08T06:39:12;18.85;62.71
68943;DHT22;60852;52.190;4.422;2023-08-08T06:41:37;18.68;62.40
68943;DHT22;60852;52.190;4.422;2023-08-08T06:44:04;18.64;62.84
68943;DHT22;60852;52.190;4.422;2023-08-08T06:46:30;18.64;61.89
68943;DHT22;60852;52.190;4.422;2023-08-08T06:48:55;18.62;61.99
68943;DHT22;60852;52.190;4.422;2023-08-08T06:51:24;18.69;61.08
68943;DHT22;60852;52.190;4.422;2023-08-08T06:53:50;18.67;60.46
68943;DHT22;60852;52.190;4.422;2023-08-08T06:56:16;18.62;60.17
68943;DHT22;60852;52.190;4.422;2023-08-08T06:58:41;18.67;60.57
68943;DHT22;60852;52.190;4.422;2023-08-08T07:01:07;18.68;61.11
68943;DHT22;60852;52.190;4.422;2023-08-08T07:03:32;18.67;61.32
68943;DHT22;60852;52.190;4.422;2023-08-08T07:05:58;18.73;60.97
68943;DHT22;60852;52.190;4.422;2023-08-08T07:08:23;18.72;61.56
68943;DHT22;60852;52.190;4.422;2023-08-08T07:10:49;18.72;60.50
68943;DHT22;60852;52.190;4.422;2023-08-08T07:13:14;18.73;59.53
68943;DHT22;60852;52.190;4.422;2023-08-08T07:15:41;18.84;60.35
68943;DHT22;60852;52.190;4.422;2023-08-08T07:18:06;18.88;60.47
68943;DHT22;60852;52.190;4.422;2023-08-08T07:20:32;18.78;59.83
68943;DHT22;60852;52.190;4.422;2023-08-08T07:22:57;18.84;60.49
68943;DHT22;60852;52.190;4.422;2023-08-08T07:25:25;18.92;61.23
68943;DHT22;60852;52.190;4.422;2023-08-08T07:27:50;18.96;60.51
68943;DHT22;60852;52.190;4.422;2023-08-08T07:30:16;18.91;60.67
68943;DHT22;60852;52.190;4.422;2023-08-08T07:32:41;18.96;60.01
68943;DHT22;60852;52.190;4.422;2023-08-08T07:35:07;19.03;60.51
68943;DHT22;60852;52.190;4.422;2023-08-08T07:37:34;19.05;59.93
68943;DHT22;60852;52.190;4.422;2023-08-08T07:39:59;19.15;60.40
68943;DHT22;60852;52.190;4.422;2023-08-08T07:42:26;19.22;60.11
68943;DHT22;60852;52.190;4.422;2023-08-08T07:44:51;19.22;60.68
68943;DHT22;60852;52.190;4.422;2023-08-08T07:47:17;19.30;61.78
68943;DHT22;60852;52.190;4.422;2023-08-08T07:49:42;19.20;60.70
68943;DHT22;60852;52.190;4.422;2023-08-08T07:52:08;19.08;61.65
68943;DHT22;60852;52.190;4.422;2023-08-08T07:54:34;18.98;60.82
68943;DHT22;60852;52.190;4.422;2023-08-08T07:57:00;19.05;61.46
68943;DHT22;60852;52.190;4.422;2023-08-08T07:59:25;19.09;61.76
68943;DHT22;60852;52.190;4.422;2023-08-08T08:01:52;19.18;61.10
68943;DHT22;60852;52.190;4.422;2023-08-08T08:04:18;19.16;60.18
68943;DHT22;60852;52.190;4.422;2023-08-08T08:06:43;19.19;61.51
68943;DHT22;60852;52.190;4.422;2023-08-08T08:09:09;19.24;61.50
68943;DHT22;60852;52.190;4.422;2023-08-08T08:11:35;19.34;61.26
68943;DHT22;60852;52.190;4.422;2023-08-08T08:14:00;19.36;60.31
68943;DHT22;60852;52.190;4.422;2023-08-08T08:16:26;19.36;61.20
68943;DHT22;60852;52.190;4.422;2023-08-08T08:18:51;19.40;61.41
68943;DHT22;60852;52.190;4.422;2023-08-08T08:21:16;19.47;60.44
68943;DHT22;60852;52.190;4.422;2023-08-08T08:23:46;19.51;61.30
68943;DHT22;60852;52.190;4.422;2023-08-08T08:26:11;19.51;61.54
68943;DHT22;60852;52.190;4.422;2023-08-08T08:28:37;19.27;60.46
68943;DHT22;60852;52.190;4.422;2023-08-08T08:31:06;19.23;62.03
68943;DHT22;60852;52.190;4.422;2023-08-08T08:33:31;19.27;60.52
68943;DHT22;60852;52.190;4.422;2023-08-08T08:35:57;19.19;60.74
68943;DHT22;60852;52.190;4.422;2023-08-08T08:38:22;19.26;61.22
68943;DHT22;60852;52.190;4.422;2023-08-08T08:40:48;19.40;60.69
68943;DHT22;60852;52.190;4.422;2023-08-08T08:43:15;19.41;60.32
68943;DHT22;60852;52.190;4.422;2023-08-08T08:45:43;19.46;60.39
68943;DHT22;60852;52.190;4.422;2023-08-08T08:48:16;19.41;59.70
68943;DHT22;60852;52.190;4.422;2023-08-08T08:50:46;19.49;60.71
68943;DHT22;60852;52.190;4.422;2023-08-08T08:53:13;19.63;60.02
68943;DHT22;60852;52.190;4.422;2023-08-08T08:55:39;19.73;59.20
68943;DHT22;60852;52.190;4.422;2023-08-08T08:58:06;19.63;59.37
68943;DHT22;60852;52.190;4.422;2023-08-08T09:00:32;19.53;59.14
68943;DHT22;60852;52.190;4.422;2023-08-08T09:02:59;19.61;59.99
68943;DHT22;60852;52.190;4.422;2023-08-08T09:05:26;19.68;60.32
68943;DHT22;60852;52.190;4.422;2023-08-08T09:07:51;19.71;59.53
68943;DHT22;60852;52.190;4.422;2023-08-08T09:10:18;19.75;59.78
68943;DHT22;60852;52.190;4.422;2023-08-08T09:12:44;19.70;58.56
68943;DHT22;60852;52.190;4.422;2023-08-08T09:15:11;19.66;58.56
68943;DHT22;60852;52.190;4.422;2023-08-08T09:17:41;19.67;58.41
68943;DHT22;60852;52.190;4.422;2023-08-08T09:20:08;19.66;58.36
68943;DHT22;60852;52.190;4.422;2023-08-08T09:22:36;19.73;59.56
68943;DHT22;60852;52.190;4.422;2023-08-08T09:25:03;19.77;60.28
68943;DHT22;60852;52.190;4.422;2023-08-08T09:27:29;19.77;58.55
68943;DHT22;60852;52.190;4.422;2023-08-08T09:29:55;19.85;58.76
68943;DHT22;60852;52.190;4.422;2023-08-08T09:32:20;19.87;57.52
68943;DHT22;60852;52.190;4.422;2023-08-08T09:34:46;19.84;58.15
68943;DHT22;60852;52.190;4.422;2023-08-08T09:37:11;19.88;59.42
68943;DHT22;60852;52.190;4.422;2023-08-08T09:39:37;19.97;57.24
68943;DHT22;60852;52.190;4.422;2023-08-08T09:42:03;20.08;57.83
68943;DHT22;60852;52.190;4.422;2023-08-08T09:44:29;20.11;57.57
68943;DHT22;60852;52.190;4.422;2023-08-08T09:46:59;20.15;57.66
68943;DHT22;60852;52.190;4.422;2023-08-08T09:49:25;20.24;59.04
68943;DHT22;60852;52.190;4.422;2023-08-08T09:51:51;20.22;58.21
68943;DHT22;60852;52.190;4.422;2023-08-08T09:54:17;20.24;58.87
68943;DHT22;60852;52.190;4.422;2023-08-08T09:56:43;20.24;57.85
68943;DHT22;60852;52.190;4.422;2023-08-08T09:59:09;20.26;59.97
68943;DHT22;60852;52.190;4.422;2023-08-08T10:01:38;20.43;59.90
68943;DHT22;60852;52.190;4.422;2023-08-08T10:04:06;20.55;58.31
68943;DHT22;60852;52.190;4.422;2023-08-08T10:06:32;20.43;57.42
68943;DHT22;60852;52.190;4.422;2023-08-08T10:08:59;20.40;58.35
68943;DHT22;60852;52.190;4.422;2023-08-08T10:11:26;20.28;57.33
68943;DHT22;60852;52.190;4.422;2023-08-08T10:13:53;20.55;56.78
68943;DHT22;60852;52.190;4.422;2023-08-08T10:16:19;20.69;56.66
68943;DHT22;60852;52.190;4.422;2023-08-08T10:18:55;20.86;55.61
68943;DHT22;60852;52.190;4.422;2023-08-08T10:21:25;21.03;54.50
68943;DHT22;60852;52.190;4.422;2023-08-08T10:24:04;21.38;53.32
68943;DHT22;60852;52.190;4.422;2023-08-08T10:26:30;21.83;52.75
68943;DHT22;60852;52.190;4.422;2023-08-08T10:28:57;21.49;53.71
68943;DHT22;60852;52.190;4.422;2023-08-08T10:31:23;21.52;54.51
68943;DHT22;60852;52.190;4.422;2023-08-08T10:33:48;21.59;55.13
68943;DHT22;60852;52.190;4.422;2023-08-08T10:36:15;21.61;54.76
68943;DHT22;60852;52.190;4.422;2023-08-08T10:38:46;21.44;55.45
68943;DHT22;60852;52.190;4.422;2023-08-08T10:41:20;21.32;55.94
68943;DHT22;60852;52.190;4.422;2023-08-08T10:43:57;21.42;55.19
68943;DHT22;60852;52.190;4.422;2023-08-08T10:46:31;21.45;54.98
68943;DHT22;60852;52.190;4.422;2023-08-08T10:48:59;21.49;55.89
68943;DHT22;60852;52.190;4.422;2023-08-08T10:54:05;21.44;54.16
68943;DHT22;60852;52.190;4.422;2023-08-08T10:56:30;21.48;54.71
68943;DHT22;60852;52.190;4.422;2023-08-08T10:58:57;21.15;55.57
68943;DHT22;60852;52.190;4.422;2023-08-08T11:01:26;20.87;55.11
68943;DHT22;60852;52.190;4.422;2023-08-08T11:03:52;20.81;55.41
68943;DHT22;60852;52.190;4.422;2023-08-08T11:06:18;20.86;56.28
68943;DHT22;60852;52.190;4.422;2023-08-08T11:08:44;20.79;55.75
68943;DHT22;60852;52.190;4.422;2023-08-08T11:11:10;20.96;56.12
68943;DHT22;60852;52.190;4.422;2023-08-08T11:13:35;21.21;54.95
68943;DHT22;60852;52.190;4.422;2023-08-08T11:16:01;21.30;54.59
68943;DHT22;60852;52.190;4.422;2023-08-08T11:18:29;21.32;56.53
68943;DHT22;60852;52.190;4.422;2023-08-08T11:20:55;21.20;55.56
68943;DHT22;60852;52.190;4.422;2023-08-08T11:23:20;21.20;56.19
68943;DHT22;60852;52.190;4.422;2023-08-08T11:25:46;21.06;56.85
68943;DHT22;60852;52.190;4.422;2023-08-08T11:28:12;21.08;56.97
68943;DHT22;60852;52.190;4.422;2023-08-08T11:30:45;21.11;56.25
68943;DHT22;60852;52.190;4.422;2023-08-08T11:33:14;21.17;55.39
68943;DHT22;60852;52.190;4.422;2023-08-08T11:35:44;21.21;55.85
68943;DHT22;60852;52.190;4.422;2023-08-08T11:38:15;21.24;55.97
68943;DHT22;60852;52.190;4.422;2023-08-08T11:40:41;21.38;55.89
68943;DHT22;60852;52.190;4.422;2023-08-08T11:43:07;21.44;54.86
68943;DHT22;60852;52.190;4.422;2023-08-08T11:45:34;21.39;54.16
68943;DHT22;60852;52.190;4.422;2023-08-08T11:48:00;21.42;53.69
68943;DHT22;60852;52.190;4.422;2023-08-08T11:50:26;21.54;54.71
68943;DHT22;60852;52.190;4.422;2023-08-08T11:52:54;21.51;55.49
68943;DHT22;60852;52.190;4.422;2023-08-08T11:55:20;21.59;54.61
68943;DHT22;60852;52.190;4.422;2023-08-08T11:57:48;21.51;55.24
68943;DHT22;60852;52.190;4.422;2023-08-08T12:00:14;21.66;54.43
68943;DHT22;60852;52.190;4.422;2023-08-08T12:02:42;21.66;53.91
68943;DHT22;60852;52.190;4.422;2023-08-08T12:05:10;21.54;54.42
68943;DHT22;60852;52.190;4.422;2023-08-08T12:07:41;21.49;56.52
68943;DHT22;60852;52.190;4.422;2023-08-08T12:10:16;21.32;56.18
68943;DHT22;60852;52.190;4.422;2023-08-08T12:12:43;21.28;55.35
68943;DHT22;60852;52.190;4.422;2023-08-08T12:15:09;21.18;56.61
68943;DHT22;60852;52.190;4.422;2023-08-08T12:17:36;21.18;54.56
68943;DHT22;60852;52.190;4.422;2023-08-08T12:20:07;21.17;54.04
68943;DHT22;60852;52.190;4.422;2023-08-08T12:22:33;21.17;55.05
68943;DHT22;60852;52.190;4.422;2023-08-08T12:24:59;20.90;56.25
68943;DHT22;60852;52.190;4.422;2023-08-08T12:27:25;20.83;58.52
68943;DHT22;60852;52.190;4.422;2023-08-08T12:29:51;20.84;57.19
68943;DHT22;60852;52.190;4.422;2023-08-08T12:32:19;20.88;57.07
68943;DHT22;60852;52.190;4.422;2023-08-08T12:34:45;20.76;57.46
68943;DHT22;60852;52.190;4.422;2023-08-08T12:37:10;20.59;57.12
68943;DHT22;60852;52.190;4.422;2023-08-08T12:39:36;20.70;57.12
68943;DHT22;60852;52.190;4.422;2023-08-08T12:42:01;20.76;56.37
68943;DHT22;60852;52.190;4.422;2023-08-08T12:44:27;20.88;57.31
68943;DHT22;60852;52.190;4.422;2023-08-08T12:46:52;20.83;57.73
68943;DHT22;60852;52.190;4.422;2023-08-08T12:49:18;20.90;57.60
68943;DHT22;60852;52.190;4.422;2023-08-08T12:51:43;21.01;57.71
68943;DHT22;60852;52.190;4.422;2023-08-08T12:54:09;21.00;56.48
68943;DHT22;60852;52.190;4.422;2023-08-08T12:56:34;20.87;57.23
68943;DHT22;60852;52.190;4.422;2023-08-08T12:59:01;21.11;56.75
68943;DHT22;60852;52.190;4.422;2023-08-08T13:01:28;21.25;56.28
68943;DHT22;60852;52.190;4.422;2023-08-08T13:03:53;21.34;57.85
68943;DHT22;60852;52.190;4.422;2023-08-08T13:06:19;21.52;56.39
68943;DHT22;60852;52.190;4.422;2023-08-08T13:08:44;21.59;55.73
68943;DHT22;60852;52.190;4.422;2023-08-08T13:11:10;21.54;55.65
68943;DHT22;60852;52.190;4.422;2023-08-08T13:13:35;21.46;55.79
68943;DHT22;60852;52.190;4.422;2023-08-08T13:16:01;21.55;55.66
68943;DHT22;60852;52.190;4.422;2023-08-08T13:18:26;21.67;56.44
68943;DHT22;60852;52.190;4.422;2023-08-08T13:20:52;21.71;55.90
68943;DHT22;60852;52.190;4.422;2023-08-08T13:23:17;21.73;55.93
68943;DHT22;60852;52.190;4.422;2023-08-08T13:25:44;21.79;55.31
68943;DHT22;60852;52.190;4.422;2023-08-08T13:28:09;21.85;56.32
68943;DHT22;60852;52.190;4.422;2023-08-08T13:30:35;21.62;56.72
68943;DHT22;60852;52.190;4.422;2023-08-08T13:33:01;21.44;56.58
68943;DHT22;60852;52.190;4.422;2023-08-08T13:35:26;21.39;56.61
68943;DHT22;60852;52.190;4.422;2023-08-08T13:37:52;21.38;57.92
68943;DHT22;60852;52.190;4.422;2023-08-08T13:40:20;21.27;57.99
68943;DHT22;60852;52.190;4.422;2023-08-08T13:42:46;21.08;57.62
68943;DHT22;60852;52.190;4.422;2023-08-08T13:45:20;21.11;58.35
68943;DHT22;60852;52.190;4.422;2023-08-08T13:47:46;21.17;59.54
68943;DHT22;60852;52.190;4.422;2023-08-08T13:50:13;21.21;58.34
68943;DHT22;60852;52.190;4.422;2023-08-08T13:52:40;21.17;58.94
68943;DHT22;60852;52.190;4.422;2023-08-08T13:55:07;21.31;55.40
68943;DHT22;60852;52.190;4.422;2023-08-08T13:57:34;21.28;55.45
68943;DHT22;60852;52.190;4.422;2023-08-08T13:59:59;21.37;56.54
68943;DHT22;60852;52.190;4.422;2023-08-08T14:02:25;21.32;57.41
68943;DHT22;60852;52.190;4.422;2023-08-08T14:04:50;21.28;55.22
68943;DHT22;60852;52.190;4.422;2023-08-08T14:07:18;21.20;54.99
68943;DHT22;60852;52.190;4.422;2023-08-08T14:09:44;21.17;55.05
68943;DHT22;60852;52.190;4.422;2023-08-08T14:12:09;21.17;56.37
68943;DHT22;60852;52.190;4.422;2023-08-08T14:14:35;21.24;55.89
68943;DHT22;60852;52.190;4.422;2023-08-08T14:17:00;21.15;56.04
68943;DHT22;60852;52.190;4.422;2023-08-08T14:19:26;21.12;57.56
68943;DHT22;60852;52.190;4.422;2023-08-08T14:21:51;21.23;56.96
68943;DHT22;60852;52.190;4.422;2023-08-08T14:24:17;21.32;57.28
68943;DHT22;60852;52.190;4.422;2023-08-08T14:26:42;21.35;56.45
68943;DHT22;60852;52.190;4.422;2023-08-08T14:29:08;21.17;55.43
68943;DHT22;60852;52.190;4.422;2023-08-08T14:31:33;21.01;57.23
68943;DHT22;60852;52.190;4.422;2023-08-08T14:33:59;20.83;55.35
68943;DHT22;60852;52.190;4.422;2023-08-08T14:36:24;20.76;56.86
68943;DHT22;60852;52.190;4.422;2023-08-08T14:38:49;20.81;58.77
68943;DHT22;60852;52.190;4.422;2023-08-08T14:41:15;20.72;59.11
68943;DHT22;60852;52.190;4.422;2023-08-08T14:43:40;20.75;59.92
68943;DHT22;60852;52.190;4.422;2023-08-08T14:46:06;20.84;60.97
68943;DHT22;60852;52.190;4.422;2023-08-08T14:48:31;20.69;60.24
68943;DHT22;60852;52.190;4.422;2023-08-08T14:50:59;20.62;59.83
68943;DHT22;60852;52.190;4.422;2023-08-08T14:53:24;20.79;58.25
68943;DHT22;60852;52.190;4.422;2023-08-08T14:55:50;20.80;60.38
68943;DHT22;60852;52.190;4.422;2023-08-08T14:58:15;21.00;60.85
68943;DHT22;60852;52.190;4.422;2023-08-08T15:00:41;21.04;59.84
68943;DHT22;60852;52.190;4.422;2023-08-08T15:03:07;20.96;58.73
68943;DHT22;60852;52.190;4.422;2023-08-08T15:05:33;20.72;59.46
68943;DHT22;60852;52.190;4.422;2023-08-08T15:07:59;20.70;60.63
68943;DHT22;60852;52.190;4.422;2023-08-08T15:10:24;20.36;60.68
68943;DHT22;60852;52.190;4.422;2023-08-08T15:12:50;20.57;60.12
68943;DHT22;60852;52.190;4.422;2023-08-08T15:15:15;20.30;59.66
68943;DHT22;60852;52.190;4.422;2023-08-08T15:17:42;19.98;59.15
68943;DHT22;60852;52.190;4.422;2023-08-08T15:20:09;20.02;60.80
68943;DHT22;60852;52.190;4.422;2023-08-08T15:22:34;20.09;62.66
68943;DHT22;60852;52.190;4.422;2023-08-08T15:25:00;20.07;63.44
68943;DHT22;60852;52.190;4.422;2023-08-08T15:27:26;19.99;61.73
68943;DHT22;60852;52.190;4.422;2023-08-08T15:29:51;19.82;62.19